createdAt,value
2023-02-02T00:01:54.399Z,3.17
2023-02-02T00:04:25.152Z,3.43
2023-02-02T00:06:53.935Z,4.57
2023-02-02T00:09:22.875Z,3.07
2023-02-02T00:11:51.996Z,4.03
2023-02-02T00:14:22.030Z,3.00
2023-02-02T00:16:51.899Z,2.67
2023-02-02T00:19:23.052Z,3.03
2023-02-02T00:21:51.640Z,3.73
2023-02-02T00:24:20.884Z,3.33
2023-02-02T00:26:53.114Z,3.07
2023-02-02T00:29:25.352Z,3.93
2023-02-02T00:31:54.285Z,4.00
2023-02-02T00:34:23.573Z,3.83
2023-02-02T00:36:52.886Z,3.47
2023-02-02T00:39:25.396Z,3.30
2023-02-02T00:41:53.904Z,3.10
2023-02-02T00:44:41.667Z,3.57
2023-02-02T00:47:10.082Z,3.07
2023-02-02T00:49:38.380Z,3.13
2023-02-02T00:52:07.029Z,3.43
2023-02-02T00:54:35.432Z,3.33
2023-02-02T00:57:03.964Z,4.40
2023-02-02T00:59:33.882Z,3.60
2023-02-02T01:02:02.261Z,4.27
2023-02-02T01:04:30.788Z,3.67
2023-02-02T01:06:59.153Z,3.93
2023-02-02T01:09:27.591Z,4.20
2023-02-02T01:11:56.073Z,4.50
2023-02-02T01:14:24.577Z,3.90
2023-02-02T01:16:54.230Z,3.13
2023-02-02T01:19:22.735Z,4.10
2023-02-02T01:21:52.064Z,4.07
2023-02-02T01:24:20.428Z,3.90
2023-02-02T01:26:48.851Z,3.97
2023-02-02T01:29:17.345Z,4.30
2023-02-02T01:31:45.998Z,4.57
2023-02-02T01:34:15.773Z,4.60
2023-02-02T01:36:44.155Z,4.10
2023-02-02T01:39:12.710Z,4.57
2023-02-02T01:41:42.322Z,4.27
2023-02-02T01:45:05.159Z,3.90
2023-02-02T01:47:39.133Z,3.90
2023-02-02T01:50:11.464Z,3.97
2023-02-02T01:52:41.500Z,4.93
2023-02-02T01:55:14.240Z,4.10
2023-02-02T01:57:48.350Z,4.53
2023-02-02T02:00:18.618Z,5.03
2023-02-02T02:02:49.613Z,4.10
2023-02-02T02:05:27.463Z,4.63
2023-02-02T02:08:05.317Z,3.80
2023-02-02T02:10:34.976Z,3.80
2023-02-02T02:13:03.424Z,4.40
2023-02-02T02:15:53.323Z,3.83
2023-02-02T02:18:33.547Z,4.37
2023-02-02T02:21:51.648Z,3.67
2023-02-02T02:25:18.298Z,3.67
2023-02-02T02:28:49.305Z,3.80
2023-02-02T02:31:56.032Z,3.40
2023-02-02T02:34:35.383Z,4.07
2023-02-02T02:37:12.025Z,3.60
2023-02-02T02:39:47.102Z,4.27
2023-02-02T02:42:20.166Z,3.97
2023-02-02T02:44:50.512Z,3.70
2023-02-02T02:47:21.239Z,3.87
2023-02-02T02:49:50.927Z,4.03
2023-02-02T02:52:19.265Z,3.90
2023-02-02T02:54:51.701Z,3.60
2023-02-02T02:57:40.047Z,3.33
2023-02-02T03:00:27.992Z,3.73
2023-02-02T03:03:09.497Z,3.23
2023-02-02T03:05:50.856Z,4.50
2023-02-02T03:08:26.057Z,4.57
2023-02-02T03:10:57.042Z,4.20
2023-02-02T03:13:26.121Z,4.00
2023-02-02T03:15:54.727Z,3.67
2023-02-02T03:18:29.135Z,4.77
2023-02-02T03:20:57.760Z,4.13
2023-02-02T03:23:26.519Z,5.47
2023-02-02T03:25:55.597Z,3.73
2023-02-02T03:28:25.534Z,3.90
2023-02-02T03:30:55.131Z,3.87
2023-02-02T03:33:25.414Z,4.43
2023-02-02T03:35:54.178Z,4.47
2023-02-02T03:38:22.552Z,4.00
2023-02-02T03:40:52.661Z,4.20
2023-02-02T03:43:25.019Z,4.30
2023-02-02T03:45:58.561Z,3.57
2023-02-02T03:48:28.800Z,4.33
2023-02-02T03:50:57.296Z,3.60
2023-02-02T03:53:26.016Z,3.57
2023-02-02T03:55:55.080Z,6.03
2023-02-02T03:58:23.627Z,3.77
2023-02-02T04:00:52.256Z,4.70
2023-02-02T04:03:20.612Z,4.43
2023-02-02T04:05:52.505Z,3.63
2023-02-02T04:08:20.766Z,3.70
2023-02-02T04:10:49.032Z,4.00
2023-02-02T04:13:17.367Z,3.13
2023-02-02T04:15:45.768Z,3.73
2023-02-02T04:18:14.307Z,2.90
2023-02-02T04:20:42.687Z,3.57
2023-02-02T04:23:12.763Z,3.57
2023-02-02T04:25:41.166Z,3.67
2023-02-02T04:28:09.947Z,3.10
2023-02-02T04:30:38.743Z,2.47
2023-02-02T04:33:07.349Z,2.67
2023-02-02T04:35:45.554Z,1.37
2023-02-02T04:38:15.812Z,1.70
2023-02-02T04:40:46.693Z,1.30
2023-02-02T04:43:16.106Z,1.47
2023-02-02T04:45:45.070Z,1.30
2023-02-02T04:48:13.501Z,1.20
2023-02-02T04:50:41.830Z,1.30
2023-02-02T04:53:10.139Z,1.30
2023-02-02T04:55:40.227Z,1.17
2023-02-02T04:58:08.632Z,1.10
2023-02-02T05:00:37.111Z,1.00
2023-02-02T05:03:05.616Z,1.23
2023-02-02T05:05:33.991Z,1.87
2023-02-02T05:08:02.292Z,1.20
2023-02-02T05:10:31.224Z,0.97
2023-02-02T05:13:00.970Z,1.13
2023-02-02T05:15:29.382Z,1.30
2023-02-02T05:17:57.760Z,1.27
2023-02-02T05:20:26.274Z,1.30
2023-02-02T05:22:54.687Z,2.27
2023-02-02T05:25:23.644Z,1.27
2023-02-02T05:27:52.252Z,1.67
2023-02-02T05:30:22.379Z,1.40
2023-02-02T05:32:50.768Z,1.87
2023-02-02T05:35:19.247Z,1.50
2023-02-02T05:37:47.806Z,1.30
2023-02-02T05:40:16.575Z,1.50
2023-02-02T05:42:49.536Z,1.37
2023-02-02T05:45:18.300Z,1.23
2023-02-02T05:47:48.030Z,2.00
2023-02-02T05:50:17.177Z,1.80
2023-02-02T05:52:48.374Z,1.03
2023-02-02T05:55:18.478Z,1.27
2023-02-02T05:57:46.894Z,1.40
2023-02-02T06:00:16.655Z,1.20
2023-02-02T06:02:45.572Z,1.27
2023-02-02T06:05:15.408Z,1.30
2023-02-02T06:07:43.796Z,1.20
2023-02-02T06:10:12.523Z,1.27
2023-02-02T06:12:40.871Z,1.10
2023-02-02T06:15:11.720Z,1.00
2023-02-02T06:17:40.056Z,1.60
2023-02-02T06:20:09.521Z,1.37
2023-02-02T06:22:39.154Z,1.40
2023-02-02T06:25:08.894Z,1.43
2023-02-02T06:27:37.429Z,4.00
2023-02-02T06:30:06.724Z,1.80
2023-02-02T06:32:35.147Z,1.80
2023-02-02T06:35:03.854Z,1.30
2023-02-02T06:37:34.209Z,1.37
2023-02-02T06:40:03.994Z,1.23
2023-02-02T06:42:32.348Z,1.40
2023-02-02T06:45:00.664Z,1.63
2023-02-02T06:47:29.072Z,1.83
2023-02-02T06:49:57.613Z,1.23
2023-02-02T06:52:25.943Z,1.63
2023-02-02T06:54:54.291Z,1.30
2023-02-02T06:57:24.107Z,1.67
2023-02-02T06:59:52.389Z,1.50
2023-02-02T07:02:20.849Z,1.53
2023-02-02T07:04:49.348Z,1.50
2023-02-02T07:07:21.454Z,1.33
2023-02-02T07:09:58.105Z,1.50
2023-02-02T07:12:28.368Z,1.30
2023-02-02T07:14:57.013Z,1.70
2023-02-02T07:17:25.411Z,1.43
2023-02-02T07:19:53.662Z,1.60
2023-02-02T07:22:22.060Z,1.53
2023-02-02T07:24:50.391Z,1.60
2023-02-02T07:27:18.761Z,1.30
2023-02-02T07:29:48.463Z,1.70
2023-02-02T07:32:16.974Z,1.33
2023-02-02T07:34:45.218Z,2.43
2023-02-02T07:37:13.464Z,2.60
2023-02-02T07:39:43.351Z,2.03
2023-02-02T07:42:13.467Z,2.50
2023-02-02T07:44:41.815Z,2.47
2023-02-02T07:47:11.523Z,2.83
2023-02-02T07:49:39.933Z,3.20
2023-02-02T07:52:08.426Z,2.23
2023-02-02T07:54:36.870Z,2.00
2023-02-02T07:57:05.330Z,1.70
2023-02-02T07:59:33.754Z,1.70
2023-02-02T08:02:02.199Z,1.70
2023-02-02T08:04:33.561Z,1.83
2023-02-02T08:07:02.052Z,1.50
2023-02-02T08:09:31.160Z,1.90
2023-02-02T08:12:01.852Z,2.73
2023-02-02T08:14:30.486Z,3.90
2023-02-02T08:16:58.797Z,2.37
2023-02-02T08:19:27.160Z,2.00
2023-02-02T08:21:57.036Z,1.70
2023-02-02T08:24:25.439Z,1.70
2023-02-02T08:26:54.002Z,1.70
2023-02-02T08:29:22.395Z,1.60
2023-02-02T08:31:50.968Z,1.50
2023-02-02T08:34:19.397Z,2.00
2023-02-02T08:36:47.659Z,1.83
2023-02-02T08:39:17.400Z,2.10
2023-02-02T08:41:46.379Z,1.90
2023-02-02T08:44:17.081Z,1.57
2023-02-02T08:46:45.397Z,1.93
2023-02-02T08:49:14.335Z,3.10
2023-02-02T08:51:43.171Z,2.03
2023-02-02T08:54:11.564Z,1.93
2023-02-02T08:56:42.050Z,1.70
2023-02-02T08:59:10.487Z,2.10
2023-02-02T09:01:39.024Z,1.60
2023-02-02T09:04:09.413Z,1.83
2023-02-02T09:06:40.446Z,1.90
2023-02-02T09:09:11.659Z,1.80
2023-02-02T09:11:42.087Z,1.50
2023-02-02T09:14:12.310Z,1.60
2023-02-02T09:16:40.921Z,1.90
2023-02-02T09:19:09.543Z,2.23
2023-02-02T09:21:38.019Z,1.80
2023-02-02T09:24:11.684Z,1.60
2023-02-02T09:26:41.777Z,1.43
2023-02-02T09:29:14.394Z,1.80
2023-02-02T09:31:43.250Z,1.50
2023-02-02T09:34:13.913Z,1.60
2023-02-02T09:36:44.224Z,1.70
2023-02-02T09:39:15.104Z,1.30
2023-02-02T09:42:19.931Z,1.50
2023-02-02T09:45:14.837Z,1.70
2023-02-02T09:47:57.816Z,1.50
2023-02-02T09:50:45.303Z,1.77
2023-02-02T09:53:24.543Z,2.07
2023-02-02T09:55:55.972Z,1.83
2023-02-02T09:58:30.084Z,1.60
2023-02-02T10:01:06.875Z,1.90
2023-02-02T10:03:42.015Z,1.73
2023-02-02T10:06:26.651Z,1.63
2023-02-02T10:09:01.003Z,1.83
2023-02-02T10:11:35.614Z,1.60
2023-02-02T10:14:14.351Z,1.70
2023-02-02T10:16:43.319Z,1.63
2023-02-02T10:19:13.681Z,1.90
2023-02-02T10:21:49.682Z,2.07
2023-02-02T10:24:21.995Z,2.03
2023-02-02T10:26:53.561Z,1.87
2023-02-02T10:29:48.012Z,1.70
2023-02-02T10:32:24.112Z,1.87
2023-02-02T10:35:28.632Z,1.67
2023-02-02T10:38:03.151Z,2.13
2023-02-02T10:40:48.378Z,2.50
2023-02-02T10:43:54.570Z,1.83
2023-02-02T10:46:27.512Z,2.53
2023-02-02T10:49:12.999Z,2.10
2023-02-02T10:51:42.213Z,2.23
2023-02-02T10:54:31.064Z,2.40
2023-02-02T10:57:02.327Z,1.80
2023-02-02T10:59:34.818Z,2.33
2023-02-02T11:02:19.965Z,2.40
2023-02-02T11:05:06.365Z,2.13
2023-02-02T11:07:34.774Z,1.90
2023-02-02T11:10:03.125Z,2.00
2023-02-02T11:12:36.763Z,2.00
2023-02-02T11:15:09.028Z,2.10
2023-02-02T11:17:39.680Z,1.90
2023-02-02T11:20:26.881Z,1.90
2023-02-02T11:23:03.169Z,2.03
2023-02-02T11:25:35.515Z,2.40
2023-02-02T11:28:19.000Z,2.30
2023-02-02T11:30:52.607Z,2.10
2023-02-02T11:33:30.319Z,2.03
2023-02-02T11:36:01.055Z,2.37
2023-02-02T11:38:30.315Z,1.90
2023-02-02T11:41:03.741Z,2.23
2023-02-02T11:43:41.019Z,2.13
2023-02-02T11:46:21.467Z,2.33
2023-02-02T11:48:58.805Z,2.27
2023-02-02T11:51:29.534Z,2.20
2023-02-02T11:54:06.788Z,2.20
2023-02-02T11:56:38.233Z,2.17
2023-02-02T11:59:06.794Z,2.00
2023-02-02T12:01:39.649Z,1.70
2023-02-02T12:04:26.532Z,1.80
2023-02-02T12:06:55.113Z,2.10
2023-02-02T12:09:25.881Z,2.23
2023-02-02T12:12:03.340Z,2.07
2023-02-02T12:14:44.122Z,2.43
2023-02-02T12:17:27.697Z,2.37
2023-02-02T12:20:33.474Z,1.60
2023-02-02T12:23:36.953Z,2.03
2023-02-02T12:26:30.553Z,1.80
2023-02-02T12:29:28.276Z,1.50
2023-02-02T12:32:17.960Z,1.20
2023-02-02T12:35:00.684Z,1.40
2023-02-02T12:37:51.549Z,1.30
2023-02-02T12:40:43.695Z,1.30
2023-02-02T12:43:27.189Z,1.20
2023-02-02T12:46:23.190Z,1.40
2023-02-02T12:49:08.361Z,2.67
2023-02-02T12:51:54.252Z,1.67
2023-02-02T12:54:53.127Z,1.63
2023-02-02T12:57:35.446Z,2.00
2023-02-02T13:00:28.162Z,1.70
2023-02-02T13:03:11.705Z,2.40
2023-02-02T13:05:55.663Z,2.33
2023-02-02T13:08:30.593Z,1.90
2023-02-02T13:11:28.236Z,2.67
2023-02-02T13:13:59.618Z,2.57
2023-02-02T13:16:31.556Z,2.50
2023-02-02T13:19:08.051Z,2.17
2023-02-02T13:21:38.509Z,2.20
2023-02-02T13:24:10.958Z,2.27
2023-02-02T13:26:45.745Z,2.00
2023-02-02T13:29:34.064Z,2.00
2023-02-02T13:32:22.595Z,2.43
2023-02-02T13:34:56.862Z,2.47
2023-02-02T13:37:37.108Z,2.17
2023-02-02T13:40:16.991Z,2.13
2023-02-02T13:42:53.465Z,1.90
2023-02-02T13:45:41.439Z,2.10
2023-02-02T13:48:25.603Z,2.43
2023-02-02T13:51:43.374Z,1.70
2023-02-02T13:54:55.199Z,2.20
2023-02-02T13:58:05.354Z,2.20
2023-02-02T14:00:41.019Z,1.93
2023-02-02T14:03:38.702Z,1.97
2023-02-02T14:06:12.303Z,2.00
2023-02-02T14:08:48.949Z,1.67
2023-02-02T14:11:28.110Z,1.93
2023-02-02T14:14:18.655Z,2.07
2023-02-02T14:16:52.416Z,1.90
2023-02-02T14:19:55.260Z,1.83
2023-02-02T14:22:50.988Z,2.63
2023-02-02T14:25:55.654Z,2.33
2023-02-02T14:28:57.188Z,2.33
2023-02-02T14:31:43.532Z,2.43
2023-02-02T14:34:35.715Z,2.40
2023-02-02T14:37:39.600Z,2.50
2023-02-02T14:40:44.880Z,2.43
2023-02-02T14:43:41.295Z,2.10
2023-02-02T14:46:48.200Z,2.20
2023-02-02T14:49:29.100Z,2.37
2023-02-02T14:52:05.670Z,2.20
2023-02-02T14:54:39.270Z,2.10
2023-02-02T14:57:26.387Z,2.60
2023-02-02T14:59:56.503Z,2.60
2023-02-02T15:02:33.095Z,3.70
2023-02-02T15:05:40.427Z,3.60
2023-02-02T15:08:26.195Z,3.07
2023-02-02T15:11:32.088Z,2.90
2023-02-02T15:14:14.175Z,2.93
2023-02-02T15:16:44.023Z,2.93
2023-02-02T15:19:25.864Z,3.03
2023-02-02T15:21:58.570Z,3.70
2023-02-02T15:24:31.045Z,2.93
2023-02-02T15:27:03.127Z,3.07
2023-02-02T15:29:42.750Z,4.10
2023-02-02T15:32:17.173Z,4.10
2023-02-02T15:34:50.385Z,4.80
2023-02-02T15:37:24.875Z,5.73
2023-02-02T15:39:59.905Z,6.80
2023-02-02T15:42:56.508Z,5.80
2023-02-02T15:45:43.554Z,5.70
2023-02-02T15:48:23.905Z,5.80
2023-02-02T15:50:57.669Z,7.27
2023-02-02T15:53:29.327Z,6.13
2023-02-02T15:55:59.365Z,6.33
2023-02-02T15:58:33.604Z,6.53
2023-02-02T16:01:06.741Z,7.97
2023-02-02T16:03:46.789Z,8.60
2023-02-02T16:06:15.346Z,7.97
2023-02-02T16:08:44.476Z,8.07
2023-02-02T16:11:17.318Z,8.40
2023-02-02T16:13:58.813Z,8.50
2023-02-02T16:16:30.059Z,8.67
2023-02-02T16:19:14.694Z,8.47
2023-02-02T16:21:49.702Z,9.33
2023-02-02T16:24:24.508Z,8.97
2023-02-02T16:26:56.995Z,9.13
2023-02-02T16:29:28.066Z,9.37
2023-02-02T16:31:58.377Z,9.33
2023-02-02T16:34:48.170Z,10.00
2023-02-02T16:37:27.712Z,11.03
2023-02-02T16:39:59.035Z,10.20
2023-02-02T16:42:31.632Z,9.73
2023-02-02T16:45:01.725Z,9.70
2023-02-02T16:47:40.564Z,8.37
2023-02-02T16:50:32.206Z,8.47
2023-02-02T16:53:04.560Z,8.90
2023-02-02T16:55:49.984Z,8.00
2023-02-02T16:58:24.017Z,8.70
2023-02-02T17:01:14.083Z,8.07
2023-02-02T17:03:51.435Z,8.20
2023-02-02T17:06:35.700Z,8.57
2023-02-02T17:09:35.198Z,8.80
2023-02-02T17:12:14.335Z,7.90
2023-02-02T17:14:56.677Z,7.87
2023-02-02T17:17:25.451Z,8.80
2023-02-02T17:19:54.015Z,8.50
2023-02-02T17:22:25.328Z,9.00
2023-02-02T17:24:54.107Z,9.13
2023-02-02T17:27:29.150Z,9.37
2023-02-02T17:30:01.379Z,9.27
2023-02-02T17:32:29.770Z,10.40
2023-02-02T17:34:58.185Z,9.47
2023-02-02T17:37:26.539Z,10.70
2023-02-02T17:39:54.854Z,9.60
2023-02-02T17:42:26.779Z,10.60
2023-02-02T17:44:55.337Z,10.80
2023-02-02T17:47:25.111Z,11.93
2023-02-02T17:49:53.652Z,11.70
2023-02-02T17:52:22.360Z,11.67
2023-02-02T17:54:50.702Z,12.47
2023-02-02T17:57:20.157Z,11.40
2023-02-02T17:59:48.549Z,12.60
2023-02-02T18:02:17.759Z,11.47
2023-02-02T18:04:59.273Z,12.37
2023-02-02T18:07:27.603Z,13.80
2023-02-02T18:09:55.977Z,11.93
2023-02-02T18:12:25.342Z,12.80
2023-02-02T18:14:55.790Z,12.60
2023-02-02T18:17:26.280Z,14.37
2023-02-02T18:19:56.734Z,12.73
2023-02-02T18:22:36.025Z,12.93
2023-02-02T18:25:13.809Z,13.47
2023-02-02T18:27:51.590Z,13.33
2023-02-02T18:30:29.294Z,13.83
2023-02-02T18:32:57.642Z,13.60
2023-02-02T18:35:28.422Z,12.80
2023-02-02T18:37:57.841Z,13.23
2023-02-02T18:40:26.265Z,13.20
2023-02-02T18:42:54.862Z,13.40
2023-02-02T18:45:23.715Z,12.07
2023-02-02T18:47:52.415Z,11.37
2023-02-02T18:50:22.138Z,10.60
2023-02-02T18:52:51.807Z,10.10
2023-02-02T18:55:20.165Z,9.93
2023-02-02T18:57:48.649Z,9.30
2023-02-02T19:00:17.522Z,10.20
2023-02-02T19:02:45.910Z,10.47
2023-02-02T19:05:31.706Z,9.80
2023-02-02T19:08:03.420Z,10.17
2023-02-02T19:10:31.923Z,10.40
2023-02-02T19:13:13.370Z,10.30
2023-02-02T19:15:42.424Z,9.27
2023-02-02T19:18:17.014Z,8.67
2023-02-02T19:20:46.126Z,8.83
2023-02-02T19:23:19.131Z,10.40
2023-02-02T19:25:51.660Z,9.63
2023-02-02T19:28:29.307Z,9.00
2023-02-02T19:31:00.105Z,8.90
2023-02-02T19:33:38.603Z,8.37
2023-02-02T19:36:12.465Z,7.97
2023-02-02T19:38:42.437Z,8.20
2023-02-02T19:41:20.273Z,8.53
2023-02-02T19:43:49.057Z,9.00
2023-02-02T19:46:22.517Z,8.67
2023-02-02T19:48:55.695Z,8.23
2023-02-02T19:51:42.967Z,8.00
2023-02-02T19:54:29.738Z,8.20
2023-02-02T19:57:01.826Z,7.57
2023-02-02T19:59:36.244Z,6.67
2023-02-02T20:02:53.595Z,7.33
2023-02-02T20:05:24.338Z,6.93
2023-02-02T20:08:02.389Z,7.50
2023-02-02T20:10:42.562Z,6.70
2023-02-02T20:13:22.400Z,6.73
2023-02-02T20:15:54.684Z,6.83
2023-02-02T20:18:35.483Z,6.17
2023-02-02T20:21:08.952Z,6.07
2023-02-02T20:23:42.568Z,6.73
2023-02-02T20:26:24.313Z,5.97
2023-02-02T20:28:54.573Z,5.90
2023-02-02T20:31:26.592Z,5.13
2023-02-02T20:33:57.591Z,5.57
2023-02-02T20:36:36.773Z,5.80
2023-02-02T20:39:28.916Z,5.63
2023-02-02T20:41:58.863Z,4.97
2023-02-02T20:44:29.475Z,5.57
2023-02-02T20:47:00.386Z,5.03
2023-02-02T20:49:31.729Z,4.90
2023-02-02T20:52:03.653Z,5.03
2023-02-02T20:54:32.834Z,5.80
2023-02-02T20:57:03.214Z,4.93
2023-02-02T20:59:31.601Z,4.93
2023-02-02T21:02:00.811Z,4.80
2023-02-02T21:04:29.687Z,4.73
2023-02-02T21:07:00.449Z,4.47
2023-02-02T21:09:28.987Z,4.80
2023-02-02T21:11:57.334Z,4.63
2023-02-02T21:14:27.130Z,5.00
2023-02-02T21:17:12.695Z,4.83
2023-02-02T21:19:42.622Z,4.43
2023-02-02T21:22:11.283Z,5.00
2023-02-02T21:24:39.683Z,3.93
2023-02-02T21:27:08.994Z,4.90
2023-02-02T21:29:38.970Z,4.63
2023-02-02T21:32:07.607Z,5.43
2023-02-02T21:34:37.692Z,4.77
2023-02-02T21:37:13.679Z,4.17
2023-02-02T21:39:48.130Z,4.60
2023-02-02T21:42:18.892Z,5.23
2023-02-02T21:44:54.206Z,4.70
2023-02-02T21:47:34.159Z,4.50
2023-02-02T21:50:15.862Z,4.70
2023-02-02T21:52:44.388Z,4.30
2023-02-02T21:55:32.786Z,3.80
2023-02-02T21:58:02.601Z,4.00
2023-02-02T22:00:34.953Z,4.43
2023-02-02T22:03:03.613Z,4.23
2023-02-02T22:05:37.838Z,3.30
2023-02-02T22:08:22.703Z,3.40
2023-02-02T22:10:51.109Z,3.77
2023-02-02T22:13:21.953Z,3.67
2023-02-02T22:15:54.011Z,3.57
2023-02-02T22:18:24.853Z,3.23
2023-02-02T22:20:56.563Z,3.40
2023-02-02T22:23:28.932Z,2.90
2023-02-02T22:25:59.829Z,3.57
2023-02-02T22:28:31.527Z,3.43
2023-02-02T22:31:01.717Z,3.17
2023-02-02T22:33:30.035Z,3.17
2023-02-02T22:35:58.359Z,3.00
2023-02-02T22:38:27.168Z,2.50
2023-02-02T22:40:55.770Z,2.50
2023-02-02T22:43:24.090Z,2.10
2023-02-02T22:45:52.490Z,2.77
2023-02-02T22:48:22.248Z,2.43
2023-02-02T22:50:50.566Z,2.00
2023-02-02T22:53:18.914Z,2.07
2023-02-02T22:55:47.247Z,2.33
2023-02-02T22:58:15.551Z,2.40
2023-02-02T23:00:43.855Z,2.00
2023-02-02T23:03:12.324Z,2.20
2023-02-02T23:05:42.156Z,2.27
2023-02-02T23:08:10.528Z,2.00
2023-02-02T23:10:39.008Z,2.30
2023-02-02T23:13:08.251Z,1.73
2023-02-02T23:15:36.892Z,1.80
2023-02-02T23:18:06.042Z,1.70
2023-02-02T23:20:34.675Z,2.13
2023-02-02T23:23:05.312Z,2.00
2023-02-02T23:25:33.827Z,1.80
2023-02-02T23:28:02.151Z,1.80
2023-02-02T23:30:30.545Z,2.00
2023-02-02T23:32:59.011Z,1.93
2023-02-02T23:35:27.339Z,1.90
2023-02-02T23:37:55.664Z,2.27
2023-02-02T23:40:25.704Z,1.57
2023-02-02T23:42:54.273Z,2.30
2023-02-02T23:45:22.689Z,2.10
2023-02-02T23:47:50.991Z,2.10
2023-02-02T23:50:19.512Z,1.90
2023-02-02T23:52:47.951Z,2.23
2023-02-02T23:55:16.791Z,2.00
2023-02-02T23:57:46.565Z,1.70
